Time;durP1;ratioP1;P1;durP2;ratioP2;P2;SDS_P1;SDS_P2;PMS_P1;PMS_P2;Temp;Humidity;BMP_temperature;BMP_pressure;BME280_temperature;BME280_humidity;BME280_pressure;Samples;Min_cycle;Max_cycle;Signal;HPM_P1;HPM_P2
2023/09/18 00:00:00;;;;;;;10.20;9.60;;;21.90;99.90;;;;;;5001302;28;20426;-66
2023/09/18 00:02:27;;;;;;;11.50;10.60;;;21.90;99.90;;;;;;5003767;28;20414;-66
2023/09/18 00:04:53;;;;;;;11.10;10.27;;;21.80;99.90;;;;;;5013876;28;20472;-66
2023/09/18 00:07:19;;;;;;;12.50;11.70;;;21.80;99.90;;;;;;4995119;28;20466;-66
2023/09/18 00:09:44;;;;;;;10.63;9.87;;;21.80;99.90;;;;;;4999674;28;20206;-66
2023/09/18 00:12:10;;;;;;;11.70;10.83;;;21.80;99.90;;;;;;5004672;28;20579;-66
2023/09/18 00:14:37;;;;;;;12.37;11.40;;;21.80;99.90;;;;;;4993749;28;20171;-66
2023/09/18 00:17:03;;;;;;;11.67;10.77;;;21.80;99.90;;;;;;4994714;28;20184;-66
2023/09/18 00:19:31;;;;;;;11.50;10.70;;;21.80;99.90;;;;;;5005741;28;20895;-66
2023/09/18 00:22:00;;;;;;;11.57;10.30;;;21.90;99.90;;;;;;5010492;28;20418;-66
2023/09/18 00:24:26;;;;;;;11.27;10.23;;;21.90;99.90;;;;;;5009224;28;20422;-66
2023/09/18 00:26:52;;;;;;;11.00;10.20;;;21.90;99.90;;;;;;5013198;28;20515;-66
2023/09/18 00:29:18;;;;;;;11.07;10.17;;;21.90;99.90;;;;;;5013122;28;20414;-66
2023/09/18 00:31:45;;;;;;;11.03;10.23;;;21.90;99.90;;;;;;5004903;28;20450;-67
2023/09/18 00:34:10;;;;;;;12.13;10.90;;;21.90;99.90;;;;;;5011817;28;20449;-66
2023/09/18 00:36:36;;;;;;;12.60;10.67;;;21.80;99.90;;;;;;4995590;28;20234;-66
2023/09/18 00:39:03;;;;;;;11.20;10.30;;;21.80;99.90;;;;;;5001217;28;20564;-66
2023/09/18 00:41:29;;;;;;;10.97;10.10;;;21.70;99.90;;;;;;5005119;28;20223;-66
2023/09/18 00:43:54;;;;;;;11.80;10.90;;;21.70;99.90;;;;;;5005234;28;20421;-66
2023/09/18 00:46:21;;;;;;;11.00;10.10;;;21.70;99.90;;;;;;5003272;28;20226;-66
2023/09/18 00:48:47;;;;;;;12.10;11.20;;;21.70;99.90;;;;;;5024122;28;20198;-64
2023/09/18 00:51:14;;;;;;;11.93;11.07;;;21.70;99.90;;;;;;5011607;28;20429;-66
2023/09/18 00:53:44;;;;;;;11.43;10.60;;;21.70;99.90;;;;;;4995049;28;20411;-66
2023/09/18 00:56:11;;;;;;;11.87;10.00;;;21.60;99.90;;;;;;5011385;28;20425;-66
2023/09/18 00:58:37;;;;;;;10.70;9.90;;;21.60;99.90;;;;;;5011572;28;20922;-66
2023/09/18 01:01:04;;;;;;;11.20;10.30;;;21.50;99.90;;;;;;5012102;28;20414;-66
2023/09/18 01:03:30;;;;;;;10.97;10.17;;;21.50;99.90;;;;;;5012508;28;20233;-66
2023/09/18 01:05:56;;;;;;;12.03;10.93;;;21.40;99.90;;;;;;4994287;28;20411;-66
2023/09/18 01:08:23;;;;;;;11.37;10.43;;;21.40;99.90;;;;;;5002471;28;20417;-66
2023/09/18 01:11:10;;;;;;;11.40;10.20;;;21.40;99.90;;;;;;5009288;28;20437;-66
2023/09/18 01:14:25;;;;;;;11.47;10.43;;;21.50;99.90;;;;;;4992680;28;20434;-66
2023/09/18 01:16:57;;;;;;;16.13;10.63;;;21.50;99.90;;;;;;4982061;28;20427;-66
2023/09/18 01:19:55;;;;;;;11.30;10.47;;;21.50;99.90;;;;;;5009211;28;20414;-66
2023/09/18 01:22:22;;;;;;;11.80;10.83;;;21.50;99.90;;;;;;4966483;28;20528;-66
2023/09/18 01:24:48;;;;;;;12.50;11.40;;;21.50;99.90;;;;;;4999443;28;20902;-66
2023/09/18 01:27:18;;;;;;;11.10;10.30;;;21.50;99.90;;;;;;4996436;28;20549;-66
2023/09/18 01:29:46;;;;;;;10.87;9.97;;;21.60;99.90;;;;;;4994232;28;20587;-66
2023/09/18 01:32:13;;;;;;;11.60;10.50;;;21.60;99.90;;;;;;5007862;28;20961;-66
2023/09/18 01:34:44;;;;;;;11.00;10.10;;;21.60;99.90;;;;;;4993324;28;20449;-66
2023/09/18 01:37:12;;;;;;;11.73;10.80;;;21.60;99.90;;;;;;4996333;28;20458;-66
2023/09/18 01:39:39;;;;;;;10.73;9.93;;;21.70;99.90;;;;;;5007627;28;20968;-66
2023/09/18 01:42:06;;;;;;;10.47;9.77;;;21.70;99.90;;;;;;5015055;28;20476;-66
2023/09/18 01:44:33;;;;;;;10.33;9.40;;;21.70;99.90;;;;;;5007519;28;20526;-66
2023/09/18 01:47:03;;;;;;;11.13;10.13;;;21.60;99.90;;;;;;5002159;28;20842;-66
2023/09/18 01:49:34;;;;;;;10.50;9.60;;;21.60;99.90;;;;;;4996228;28;20832;-65
2023/09/18 01:52:00;;;;;;;11.40;10.40;;;21.60;99.90;;;;;;5000319;28;20414;-66
2023/09/18 01:54:26;;;;;;;10.53;9.57;;;21.60;99.90;;;;;;5016363;28;20414;-66
2023/09/18 01:56:53;;;;;;;10.87;9.97;;;21.60;99.90;;;;;;5012040;28;20421;-67
2023/09/18 01:59:19;;;;;;;9.97;9.27;;;21.60;99.90;;;;;;5000251;28;20823;-66
2023/09/18 02:01:45;;;;;;;11.23;9.97;;;21.60;99.90;;;;;;5007385;28;20414;-66
2023/09/18 02:04:11;;;;;;;10.93;10.13;;;21.50;99.90;;;;;;5015253;28;20424;-66
2023/09/18 02:06:37;;;;;;;10.70;10.00;;;21.50;99.90;;;;;;4995803;28;20210;-66
2023/09/18 02:09:07;;;;;;;11.30;10.30;;;21.40;99.90;;;;;;4996871;28;20184;-66
2023/09/18 02:11:33;;;;;;;11.33;10.30;;;21.40;99.90;;;;;;5012258;28;20406;-64
2023/09/18 02:14:03;;;;;;;10.70;9.90;;;21.40;99.90;;;;;;5011339;28;20426;-66
2023/09/18 02:16:29;;;;;;;11.50;10.70;;;21.40;99.90;;;;;;5009749;28;20434;-62
2023/09/18 02:18:56;;;;;;;11.57;10.70;;;21.40;99.90;;;;;;4996279;28;20419;-66
2023/09/18 02:21:23;;;;;;;11.97;10.60;;;21.40;99.90;;;;;;4996472;28;20291;-66
2023/09/18 02:23:52;;;;;;;11.97;10.93;;;21.30;99.90;;;;;;5009303;28;20742;-66
2023/09/18 02:26:19;;;;;;;11.57;10.20;;;21.30;99.90;;;;;;4996145;28;20450;-66
2023/09/18 02:28:45;;;;;;;13.63;11.47;;;21.30;99.90;;;;;;5002010;28;20426;-66
2023/09/18 02:31:11;;;;;;;11.97;11.07;;;21.30;99.90;;;;;;5014030;28;20441;-66
2023/09/18 02:33:37;;;;;;;12.33;11.43;;;21.40;99.90;;;;;;5000658;28;20423;-66
2023/09/18 02:36:03;;;;;;;12.90;11.80;;;21.40;99.90;;;;;;4995947;28;20429;-66
2023/09/18 02:38:30;;;;;;;12.47;11.40;;;21.30;99.90;;;;;;5001296;28;20425;-66
2023/09/18 02:40:56;;;;;;;12.40;11.37;;;21.40;99.90;;;;;;5015224;28;20457;-65
2023/09/18 02:43:23;;;;;;;12.70;11.80;;;21.40;99.90;;;;;;5006672;28;20521;-66
2023/09/18 02:45:50;;;;;;;11.80;11.00;;;21.30;99.90;;;;;;5006560;28;20423;-66
2023/09/18 02:48:16;;;;;;;12.90;11.60;;;21.40;99.90;;;;;;5015159;28;20416;-66
2023/09/18 02:50:42;;;;;;;12.27;11.27;;;21.40;99.90;;;;;;4997806;28;20426;-66
2023/09/18 02:53:20;;;;;;;13.07;11.97;;;21.40;99.90;;;;;;5002429;28;20418;-66
2023/09/18 02:55:54;;;;;;;10.93;10.20;;;21.40;99.90;;;;;;5013495;28;20448;-66
2023/09/18 02:58:20;;;;;;;14.03;10.40;;;21.40;99.90;;;;;;5008293;28;20414;-66
2023/09/18 03:00:48;;;;;;;11.90;10.90;;;21.40;99.90;;;;;;4998726;28;20465;-65
2023/09/18 03:03:14;;;;;;;10.70;9.80;;;21.50;99.90;;;;;;5011707;28;20418;-67
2023/09/18 03:05:41;;;;;;;10.37;9.47;;;21.50;99.90;;;;;;5009384;28;20757;-66
2023/09/18 03:08:08;;;;;;;12.20;11.20;;;21.50;99.90;;;;;;5014575;28;20470;-66
2023/09/18 03:10:35;;;;;;;12.93;10.83;;;21.60;99.90;;;;;;5011617;28;20437;-66
2023/09/18 03:13:02;;;;;;;12.70;11.50;;;21.60;99.90;;;;;;5008085;28;20785;-67
2023/09/18 03:15:28;;;;;;;11.00;10.10;;;21.60;99.90;;;;;;5014592;28;20414;-67
2023/09/18 03:17:54;;;;;;;12.57;11.37;;;21.70;99.90;;;;;;4995207;28;20498;-67
2023/09/18 03:20:23;;;;;;;10.00;9.20;;;21.70;99.90;;;;;;4995577;28;20473;-67
2023/09/18 03:22:53;;;;;;;10.23;9.43;;;21.70;99.90;;;;;;4995620;28;20415;-67
2023/09/18 03:25:19;;;;;;;9.87;9.07;;;21.70;99.90;;;;;;4996186;28;20410;-67
2023/09/18 03:27:45;;;;;;;10.37;9.37;;;21.70;99.90;;;;;;4999811;28;20541;-67
2023/09/18 03:30:17;;;;;;;7.77;7.20;;;21.70;99.90;;;;;;5012593;28;20181;-67
2023/09/18 03:32:42;;;;;;;8.37;7.67;;;21.70;99.90;;;;;;5007541;28;20547;-67
2023/09/18 03:35:17;;;;;;;7.13;6.60;;;21.80;99.90;;;;;;5014060;28;20422;-67
2023/09/18 03:37:43;;;;;;;7.30;6.60;;;21.90;99.90;;;;;;5013306;28;20224;-67
2023/09/18 03:40:09;;;;;;;6.70;6.10;;;22.00;99.90;;;;;;5013826;28;20458;-67
2023/09/18 03:42:35;;;;;;;7.77;6.80;;;22.10;99.90;;;;;;5012785;28;20833;-67
2023/09/18 03:45:02;;;;;;;7.30;6.50;;;22.10;99.90;;;;;;5011702;28;20461;-66
2023/09/18 03:47:28;;;;;;;12.83;6.90;;;22.20;99.90;;;;;;5014186;28;20504;-67
2023/09/18 03:49:54;;;;;;;7.53;6.80;;;22.30;99.90;;;;;;5004015;28;20751;-67
2023/09/18 03:52:20;;;;;;;7.90;7.10;;;22.40;99.90;;;;;;5011538;28;20414;-67
2023/09/18 03:54:46;;;;;;;7.33;6.63;;;22.60;99.90;;;;;;5005134;28;20233;-66
2023/09/18 03:57:12;;;;;;;10.73;6.50;;;22.60;99.90;;;;;;5009065;28;20207;-66
2023/09/18 03:59:37;;;;;;;7.03;6.43;;;22.60;99.90;;;;;;5000856;28;20206;-66
2023/09/18 04:02:03;;;;;;;7.87;7.03;;;22.60;99.90;;;;;;4994482;28;20188;-66
2023/09/18 04:04:29;;;;;;;8.80;6.30;;;22.70;99.90;;;;;;4994819;28;20183;-66
2023/09/18 04:06:55;;;;;;;7.43;6.73;;;22.70;99.90;;;;;;4998008;28;21271;-66
2023/09/18 04:09:21;;;;;;;8.90;8.00;;;22.60;99.90;;;;;;4995701;28;20419;-66
2023/09/18 04:11:47;;;;;;;7.43;6.70;;;22.70;99.90;;;;;;5013130;28;20186;-66
2023/09/18 04:14:12;;;;;;;8.33;7.17;;;22.80;99.90;;;;;;4999861;28;20226;-66
2023/09/18 04:16:41;;;;;;;10.13;7.23;;;22.80;99.90;;;;;;4998036;28;20316;-66
2023/09/18 04:19:07;;;;;;;7.53;6.07;;;22.90;99.90;;;;;;5012980;28;20171;-66
2023/09/18 04:21:33;;;;;;;6.47;5.40;;;22.80;99.90;;;;;;5012852;28;20487;-67
2023/09/18 04:23:58;;;;;;;6.30;5.80;;;22.70;99.90;;;;;;5012464;28;20175;-66
2023/09/18 04:26:29;;;;;;;7.47;6.77;;;22.70;99.90;;;;;;5006750;28;20239;-67
2023/09/18 04:28:55;;;;;;;6.33;5.73;;;22.70;99.90;;;;;;5007232;28;20179;-66
2023/09/18 04:31:21;;;;;;;6.97;6.37;;;22.70;99.90;;;;;;5013066;28;20422;-66
2023/09/18 04:33:49;;;;;;;5.53;5.03;;;22.60;99.90;;;;;;5012438;28;20416;-66
2023/09/18 04:36:15;;;;;;;6.67;6.07;;;22.50;99.90;;;;;;5013039;28;20190;-67
2023/09/18 04:38:41;;;;;;;5.40;4.80;;;22.50;99.90;;;;;;5011753;28;20529;-66
2023/09/18 04:41:07;;;;;;;6.43;5.83;;;22.50;99.90;;;;;;5012559;28;20810;-66
2023/09/18 04:43:38;;;;;;;9.70;5.30;;;22.40;99.90;;;;;;5012197;28;20227;-66
2023/09/18 04:46:04;;;;;;;6.10;5.60;;;22.30;99.90;;;;;;5011721;28;20183;-66
2023/09/18 04:48:31;;;;;;;6.73;5.00;;;22.30;99.90;;;;;;5011566;28;20443;-66
2023/09/18 04:50:58;;;;;;;8.50;5.50;;;22.40;99.90;;;;;;5012424;28;20409;-65
2023/09/18 04:53:24;;;;;;;8.13;5.70;;;22.40;99.90;;;;;;5012147;28;20422;-66
2023/09/18 04:55:50;;;;;;;8.20;5.63;;;22.30;99.90;;;;;;4999204;28;20780;-66
2023/09/18 04:58:16;;;;;;;7.03;5.73;;;22.30;99.90;;;;;;5006315;28;20418;-66
2023/09/18 05:00:42;;;;;;;9.77;5.97;;;22.30;99.90;;;;;;5012438;28;20402;-66
2023/09/18 05:03:09;;;;;;;9.40;6.20;;;22.20;99.90;;;;;;5012698;28;20461;-66
2023/09/18 05:05:36;;;;;;;7.53;5.30;;;22.20;99.90;;;;;;5012569;28;20476;-66
2023/09/18 05:08:04;;;;;;;8.20;5.10;;;22.30;99.90;;;;;;5012330;28;20531;-66
2023/09/18 05:10:30;;;;;;;8.40;5.50;;;22.20;99.90;;;;;;5012531;28;20461;-67
2023/09/18 05:12:58;;;;;;;9.10;6.70;;;22.20;99.90;;;;;;5006113;28;20943;-66
2023/09/18 05:15:33;;;;;;;6.03;5.43;;;22.20;99.90;;;;;;5012520;28;20468;-67
2023/09/18 05:18:00;;;;;;;5.23;4.83;;;22.20;99.90;;;;;;5012275;28;20816;-66
2023/09/18 05:20:27;;;;;;;6.13;5.57;;;22.20;99.90;;;;;;5010835;28;20436;-67
2023/09/18 05:22:55;;;;;;;5.80;5.17;;;22.10;99.90;;;;;;5011207;28;20426;-66
2023/09/18 05:25:22;;;;;;;6.20;4.90;;;22.10;99.90;;;;;;5011520;28;20433;-66
2023/09/18 05:27:54;;;;;;;6.77;5.97;;;22.00;99.90;;;;;;5007710;28;20786;-66
2023/09/18 05:30:25;;;;;;;6.73;5.43;;;22.00;99.90;;;;;;5010228;28;20414;-66
2023/09/18 05:32:51;;;;;;;6.60;6.00;;;22.00;99.90;;;;;;5006588;28;20411;-65
2023/09/18 05:35:17;;;;;;;11.10;6.93;;;22.10;99.90;;;;;;5002355;28;20781;-66
2023/09/18 05:37:43;;;;;;;9.40;6.90;;;22.10;99.90;;;;;;4997945;28;20493;-65
2023/09/18 05:40:12;;;;;;;7.90;5.70;;;22.00;99.90;;;;;;4992291;28;20463;-66
2023/09/18 05:42:39;;;;;;;6.93;5.20;;;21.90;99.90;;;;;;5003499;28;20455;-66
2023/09/18 05:45:05;;;;;;;7.50;6.10;;;21.90;99.90;;;;;;5009186;28;20965;-65
2023/09/18 05:47:38;;;;;;;8.03;6.17;;;21.90;99.90;;;;;;5007423;28;20477;-64
2023/09/18 05:50:08;;;;;;;6.27;5.70;;;21.80;99.90;;;;;;4991938;28;20515;-66
2023/09/18 05:52:34;;;;;;;8.30;5.27;;;21.80;99.90;;;;;;5002249;28;20926;-67
2023/09/18 05:55:02;;;;;;;7.83;5.70;;;21.90;99.90;;;;;;5009992;28;20505;-66
2023/09/18 05:57:27;;;;;;;6.73;5.57;;;21.80;99.90;;;;;;4998019;28;20899;-67
2023/09/18 05:59:56;;;;;;;6.13;5.23;;;21.70;99.90;;;;;;5009082;28;20418;-66
2023/09/18 06:02:24;;;;;;;8.90;6.17;;;21.70;99.90;;;;;;4995582;28;20191;-66
2023/09/18 06:05:01;;;;;;;6.83;6.20;;;21.80;99.90;;;;;;4996265;28;20484;-66
2023/09/18 06:07:30;;;;;;;9.03;5.97;;;21.90;99.90;;;;;;5011555;28;20496;-67
2023/09/18 06:09:59;;;;;;;9.57;5.63;;;21.80;99.90;;;;;;5010034;28;20440;-66
2023/09/18 06:12:25;;;;;;;6.20;5.60;;;21.70;99.90;;;;;;4996203;28;20525;-67
2023/09/18 06:14:52;;;;;;;6.00;5.40;;;21.80;99.90;;;;;;4992168;28;20431;-66
2023/09/18 06:17:18;;;;;;;7.53;5.70;;;21.80;99.90;;;;;;4998126;28;20429;-66
2023/09/18 06:19:45;;;;;;;9.93;5.57;;;21.80;99.90;;;;;;5011446;28;20807;-62
2023/09/18 06:22:11;;;;;;;6.17;4.90;;;21.90;99.90;;;;;;5005895;28;20229;-65
2023/09/18 06:24:37;;;;;;;6.70;5.40;;;21.80;99.90;;;;;;5013778;28;20451;-66
2023/09/18 06:27:04;;;;;;;9.50;5.30;;;21.90;99.90;;;;;;5014786;28;20760;-66
2023/09/18 06:29:33;;;;;;;5.93;5.40;;;21.80;99.90;;;;;;5013423;28;20960;-65
2023/09/18 06:31:59;;;;;;;6.53;5.50;;;21.80;99.90;;;;;;5008734;28;20430;-66
2023/09/18 06:34:25;;;;;;;7.23;5.73;;;21.80;99.90;;;;;;5014498;28;20426;-68
2023/09/18 06:36:51;;;;;;;9.77;4.80;;;21.80;99.90;;;;;;5012779;28;20187;-69
2023/09/18 06:39:17;;;;;;;8.10;5.17;;;21.70;99.90;;;;;;5014131;28;20414;-67
2023/09/18 06:41:43;;;;;;;6.53;4.23;;;21.70;99.90;;;;;;5015285;28;20454;-69
2023/09/18 06:44:09;;;;;;;6.13;5.33;;;21.70;99.90;;;;;;5014462;28;20179;-68
2023/09/18 06:46:35;;;;;;;7.20;4.83;;;21.80;99.90;;;;;;5014900;28;20277;-68
2023/09/18 06:49:01;;;;;;;9.07;5.03;;;21.90;99.90;;;;;;5014574;28;20429;-68
2023/09/18 06:51:30;;;;;;;6.23;5.73;;;22.00;99.90;;;;;;5015388;28;20176;-68
2023/09/18 06:53:57;;;;;;;5.60;5.10;;;22.10;99.90;;;;;;5014087;28;20189;-67
2023/09/18 06:56:25;;;;;;;5.70;5.30;;;22.00;99.90;;;;;;5015191;28;20754;-68
2023/09/18 06:58:51;;;;;;;8.23;6.30;;;22.10;99.90;;;;;;5014155;28;20418;-68
2023/09/18 07:01:20;;;;;;;6.00;5.60;;;22.10;99.90;;;;;;5009282;28;20458;-68
2023/09/18 07:03:50;;;;;;;7.17;6.67;;;22.10;99.90;;;;;;5006909;28;20932;-64
2023/09/18 07:06:16;;;;;;;5.23;4.70;;;22.10;99.90;;;;;;5013714;28;20458;-69
2023/09/18 07:08:44;;;;;;;5.20;4.67;;;22.10;99.90;;;;;;5014171;28;20414;-69
2023/09/18 07:11:11;;;;;;;5.50;4.43;;;22.10;99.90;;;;;;5013927;28;20429;-69
2023/09/18 07:13:37;;;;;;;5.53;5.13;;;22.10;99.90;;;;;;5014832;28;20448;-67
2023/09/18 07:16:04;;;;;;;4.90;4.10;;;22.10;99.90;;;;;;5011075;28;20450;-68
2023/09/18 07:18:29;;;;;;;5.50;4.60;;;22.10;99.90;;;;;;5003095;28;20913;-68
2023/09/18 07:20:55;;;;;;;5.27;4.27;;;22.20;99.90;;;;;;5013790;28;20417;-67
2023/09/18 07:23:21;;;;;;;8.97;4.40;;;22.20;99.90;;;;;;5013242;28;20240;-67
2023/09/18 07:25:50;;;;;;;6.33;4.53;;;22.40;99.90;;;;;;5012050;28;20599;-64
2023/09/18 07:28:17;;;;;;;6.23;5.40;;;22.50;99.90;;;;;;5013251;28;20239;-68
2023/09/18 07:30:46;;;;;;;6.70;4.70;;;22.40;99.90;;;;;;5012637;28;20460;-68
2023/09/18 07:33:17;;;;;;;9.73;8.70;;;22.40;99.90;;;;;;5010688;28;20418;-68
2023/09/18 07:35:51;;;;;;;7.63;6.90;;;22.40;99.90;;;;;;5007181;28;20422;-68
2023/09/18 07:38:20;;;;;;;5.90;5.23;;;22.60;99.90;;;;;;5013263;28;20460;-68
2023/09/18 07:40:47;;;;;;;4.60;4.20;;;22.70;99.90;;;;;;5003024;28;20494;-67
2023/09/18 07:43:13;;;;;;;5.10;4.70;;;22.70;99.90;;;;;;5011367;28;20219;-69
2023/09/18 07:45:39;;;;;;;4.07;3.77;;;22.70;99.90;;;;;;5012886;28;20434;-69
2023/09/18 07:48:07;;;;;;;6.83;6.10;;;22.80;99.90;;;;;;5010653;28;20745;-68
2023/09/18 07:50:33;;;;;;;6.53;5.17;;;22.80;99.90;;;;;;5010582;28;20775;-69
2023/09/18 07:52:59;;;;;;;7.10;5.10;;;22.70;99.90;;;;;;5013434;28;20421;-68
2023/09/18 07:55:26;;;;;;;8.30;6.07;;;22.70;99.90;;;;;;5013889;28;20500;-69
2023/09/18 07:57:52;;;;;;;15.60;10.07;;;22.70;99.90;;;;;;5011803;28;20926;-68
2023/09/18 08:00:18;;;;;;;5.50;4.90;;;22.80;99.90;;;;;;5011453;28;20511;-69
2023/09/18 08:02:44;;;;;;;5.60;5.10;;;22.80;99.90;;;;;;5012578;28;20429;-68
2023/09/18 08:05:10;;;;;;;4.73;4.43;;;22.70;99.90;;;;;;5013005;28;20414;-69
2023/09/18 08:07:36;;;;;;;8.80;5.63;;;22.80;99.90;;;;;;5012017;28;20588;-68
2023/09/18 08:10:06;;;;;;;4.87;4.30;;;22.70;99.90;;;;;;5011844;28;20190;-67
2023/09/18 08:12:32;;;;;;;8.23;4.87;;;22.70;99.90;;;;;;5007808;28;20422;-68
2023/09/18 08:14:58;;;;;;;4.70;4.37;;;22.40;99.90;;;;;;5010735;28;20456;-68
2023/09/18 08:17:25;;;;;;;6.37;5.47;;;22.30;99.90;;;;;;5000874;28;20437;-67
2023/09/18 08:19:55;;;;;;;4.83;4.33;;;22.20;99.90;;;;;;5006356;28;20414;-68
2023/09/18 08:22:21;;;;;;;5.60;5.17;;;22.30;99.90;;;;;;5009240;28;20422;-68
2023/09/18 08:24:48;;;;;;;5.07;4.67;;;22.20;99.90;;;;;;5012079;28;20426;-68
2023/09/18 08:27:18;;;;;;;6.23;5.10;;;22.30;99.90;;;;;;5010578;28;20210;-68
2023/09/18 08:29:45;;;;;;;5.63;4.97;;;22.30;99.90;;;;;;5011694;28;20456;-69
2023/09/18 08:32:10;;;;;;;4.33;4.07;;;22.30;99.90;;;;;;5011138;28;20944;-70
2023/09/18 08:34:36;;;;;;;23.50;16.43;;;22.40;99.90;;;;;;5008195;28;20425;-69
2023/09/18 08:37:03;;;;;;;9.53;7.73;;;22.40;99.90;;;;;;5012571;28;20436;-69
2023/09/18 08:39:29;;;;;;;5.30;5.00;;;22.40;99.90;;;;;;5013056;28;20458;-69
2023/09/18 08:41:59;;;;;;;88.70;80.47;;;22.40;99.90;;;;;;5004672;28;20765;-68
2023/09/18 08:44:27;;;;;;;182.73;134.50;;;22.30;99.90;;;;;;5012193;28;20414;-69
2023/09/18 08:46:54;;;;;;;125.67;105.40;;;22.40;99.90;;;;;;5012017;28;20576;-67
2023/09/18 08:49:22;;;;;;;12.77;11.43;;;22.50;99.90;;;;;;5012511;28;20438;-68
2023/09/18 08:51:50;;;;;;;8.37;6.90;;;22.50;99.90;;;;;;5012651;28;20937;-67
2023/09/18 08:54:16;;;;;;;7.70;7.10;;;22.60;99.90;;;;;;5010699;28;20414;-69
2023/09/18 08:56:42;;;;;;;7.07;6.40;;;22.60;99.90;;;;;;5007206;28;20929;-68
2023/09/18 08:59:08;;;;;;;6.80;6.20;;;22.60;99.90;;;;;;5003040;28;20432;-67
2023/09/18 09:01:33;;;;;;;5.83;5.33;;;22.70;99.90;;;;;;5011821;28;20513;-69
2023/09/18 09:04:00;;;;;;;6.00;4.63;;;22.70;99.90;;;;;;5011645;28;20175;-69
2023/09/18 09:06:26;;;;;;;7.07;6.40;;;22.80;99.90;;;;;;5012078;28;20218;-67
2023/09/18 09:08:52;;;;;;;6.30;5.70;;;22.80;99.90;;;;;;5012553;28;20429;-68
2023/09/18 09:11:19;;;;;;;5.73;5.33;;;22.80;99.90;;;;;;5007566;28;20910;-68
2023/09/18 09:13:45;;;;;;;5.30;4.90;;;22.80;99.90;;;;;;5005155;28;20180;-67
2023/09/18 09:16:12;;;;;;;5.07;4.67;;;22.90;99.90;;;;;;5010615;28;20422;-68
2023/09/18 09:18:50;;;;;;;4.57;4.37;;;23.00;99.90;;;;;;5012202;28;20543;-69
2023/09/18 09:21:16;;;;;;;4.67;4.37;;;23.00;99.90;;;;;;5011720;28;20420;-70
2023/09/18 09:23:55;;;;;;;5.10;4.50;;;23.10;99.90;;;;;;5010466;28;20768;-69
2023/09/18 09:26:23;;;;;;;19.90;17.73;;;23.20;99.90;;;;;;4995141;28;20450;-69
2023/09/18 09:28:49;;;;;;;20.40;18.33;;;23.30;99.90;;;;;;5007726;28;20805;-69
2023/09/18 09:31:28;;;;;;;4.97;4.67;;;23.40;99.90;;;;;;5010352;28;20508;-68
2023/09/18 09:33:55;;;;;;;5.10;4.80;;;23.40;99.90;;;;;;5003438;28;20504;-69
2023/09/18 09:36:21;;;;;;;6.00;5.70;;;23.30;99.90;;;;;;5009993;28;20472;-67
2023/09/18 09:38:47;;;;;;;5.80;5.30;;;23.40;99.90;;;;;;5010370;28;20486;-67
2023/09/18 09:41:19;;;;;;;5.10;4.67;;;23.40;99.90;;;;;;5008612;28;21012;-68
2023/09/18 09:43:45;;;;;;;5.80;5.50;;;23.50;99.90;;;;;;5002625;28;20612;-67
2023/09/18 09:46:18;;;;;;;5.70;5.20;;;23.50;99.90;;;;;;5004137;28;20560;-68
2023/09/18 09:48:59;;;;;;;4.80;4.40;;;23.50;99.90;;;;;;5011877;28;20813;-71
2023/09/18 09:51:25;;;;;;;3.87;3.67;;;23.50;99.90;;;;;;5007702;28;20430;-71
2023/09/18 09:53:51;;;;;;;4.83;4.43;;;23.60;99.90;;;;;;5012439;28;20764;-69
2023/09/18 09:56:21;;;;;;;4.60;4.20;;;23.50;99.90;;;;;;5009668;28;20230;-68
2023/09/18 09:59:07;;;;;;;4.37;4.10;;;23.60;99.90;;;;;;5014394;28;20414;-69
2023/09/18 10:01:35;;;;;;;4.43;4.13;;;23.60;99.90;;;;;;5008349;28;20414;-69
2023/09/18 10:04:19;;;;;;;4.77;4.47;;;23.60;99.90;;;;;;5011468;28;20446;-68
2023/09/18 10:06:53;;;;;;;4.13;3.93;;;23.50;99.90;;;;;;5008088;28;20571;-68
2023/09/18 10:09:20;;;;;;;3.00;2.80;;;23.50;99.90;;;;;;5010920;28;20776;-68
2023/09/18 10:11:52;;;;;;;3.43;3.23;;;23.50;99.90;;;;;;5014139;28;20900;-68
2023/09/18 10:14:31;;;;;;;4.37;4.07;;;23.50;99.90;;;;;;5012963;28;20506;-72
2023/09/18 10:16:59;;;;;;;4.70;4.50;;;23.50;99.90;;;;;;5013846;28;20435;-72
2023/09/18 10:19:26;;;;;;;3.90;3.50;;;23.30;99.90;;;;;;5005820;28;20441;-72
2023/09/18 10:22:06;;;;;;;5.30;4.90;;;23.00;99.90;;;;;;5013143;28;21045;-70
2023/09/18 10:24:41;;;;;;;5.20;5.00;;;23.10;99.90;;;;;;5015423;28;20817;-67
2023/09/18 10:27:09;;;;;;;4.83;4.43;;;23.20;99.90;;;;;;5014119;28;20452;-73
2023/09/18 10:29:36;;;;;;;5.20;4.80;;;23.10;99.90;;;;;;5015154;28;20453;-74
2023/09/18 10:32:07;;;;;;;4.07;3.37;;;23.20;99.90;;;;;;5011330;28;20417;-70
2023/09/18 10:34:34;;;;;;;4.00;3.60;;;23.20;99.90;;;;;;4996118;28;20422;-70
2023/09/18 10:37:05;;;;;;;3.60;3.40;;;23.30;99.90;;;;;;5006501;28;20426;-70
2023/09/18 10:39:34;;;;;;;44.30;35.93;;;23.40;99.90;;;;;;5013839;28;20438;-70
2023/09/18 10:42:03;;;;;;;76.53;62.07;;;23.30;99.90;;;;;;4999560;28;20435;-68
2023/09/18 10:44:31;;;;;;;4.40;4.10;;;23.50;99.90;;;;;;5009801;28;20731;-64
2023/09/18 10:46:58;;;;;;;4.60;4.30;;;23.60;99.90;;;;;;5014171;28;20474;-66
2023/09/18 10:49:25;;;;;;;4.20;3.80;;;23.70;99.90;;;;;;5014348;28;20426;-65
2023/09/18 10:51:54;;;;;;;4.90;4.50;;;23.90;99.90;;;;;;5013877;28;20532;-66
2023/09/18 10:54:25;;;;;;;4.87;4.57;;;24.00;99.90;;;;;;4995525;28;20410;-64
2023/09/18 10:56:52;;;;;;;4.37;4.17;;;24.10;99.90;;;;;;5009634;28;20430;-65
2023/09/18 10:59:18;;;;;;;4.17;3.67;;;24.30;99.90;;;;;;5013964;28;20533;-67
2023/09/18 11:01:44;;;;;;;3.60;3.40;;;24.30;99.90;;;;;;5014181;28;20433;-75
2023/09/18 11:04:10;;;;;;;4.50;4.30;;;24.50;99.90;;;;;;5011336;28;20426;-75
2023/09/18 11:06:55;;;;;;;4.47;4.10;;;24.50;99.90;;;;;;5008927;28;20896;-76
2023/09/18 11:09:26;;;;;;;3.93;3.73;;;24.70;99.90;;;;;;4992542;28;20437;-72
2023/09/18 11:12:02;;;;;;;4.50;4.20;;;24.90;99.90;;;;;;4998493;28;20520;-81
2023/09/18 11:14:49;;;;;;;3.97;3.77;;;25.10;99.90;;;;;;5010177;28;20501;-79
2023/09/18 11:17:36;;;;;;;4.90;4.60;;;25.10;99.90;;;;;;5013461;28;20425;-74
2023/09/18 11:20:24;;;;;;;4.17;3.80;;;25.20;99.90;;;;;;5013948;28;20418;-74
2023/09/18 11:23:10;;;;;;;4.70;4.40;;;25.30;99.90;;;;;;5013373;28;20438;-75
2023/09/18 11:25:41;;;;;;;4.93;4.63;;;25.40;99.90;;;;;;5014356;28;20979;-76
2023/09/18 11:28:18;;;;;;;3.83;3.63;;;25.60;99.90;;;;;;5011117;28;20817;-74
2023/09/18 11:30:59;;;;;;;4.30;4.10;;;25.70;99.90;;;;;;4995191;28;20449;-75
2023/09/18 11:33:36;;;;;;;4.97;4.57;;;25.60;99.90;;;;;;5009929;28;20425;-79
2023/09/18 11:36:06;;;;;;;4.80;4.50;;;25.60;99.90;;;;;;5013675;28;20441;-66
2023/09/18 11:38:50;;;;;;;4.00;3.73;;;25.50;99.90;;;;;;5019151;28;20436;-69
2023/09/18 11:41:27;;;;;;;4.03;3.73;;;25.70;99.90;;;;;;5014567;28;20465;-70
2023/09/18 11:44:14;;;;;;;3.70;3.50;;;25.90;99.90;;;;;;5014071;28;20410;-68
2023/09/18 11:46:45;;;;;;;6.00;3.60;;;26.00;99.90;;;;;;5012250;28;20862;-68
2023/09/18 11:49:14;;;;;;;5.13;3.10;;;25.90;99.90;;;;;;5012108;28;20414;-68
2023/09/18 11:51:41;;;;;;;4.53;4.10;;;26.00;99.90;;;;;;5012560;28;20430;-69
2023/09/18 11:54:07;;;;;;;3.17;2.97;;;26.30;99.90;;;;;;5013441;28;20806;-67
2023/09/18 11:56:33;;;;;;;3.80;3.50;;;26.40;99.90;;;;;;5013316;28;20430;-70
2023/09/18 11:59:04;;;;;;;3.43;3.23;;;26.60;99.90;;;;;;5014017;28;20513;-69
2023/09/18 12:01:31;;;;;;;3.60;3.40;;;26.70;99.90;;;;;;5006004;28;20172;-70
2023/09/18 12:04:08;;;;;;;44.70;36.10;;;26.50;99.90;;;;;;5013676;28;20425;-69
2023/09/18 12:06:39;;;;;;;50.53;45.90;;;26.30;99.90;;;;;;5029428;28;20449;-69
2023/09/18 12:09:05;;;;;;;5.43;4.93;;;26.10;99.90;;;;;;5012954;28;20505;-68
2023/09/18 12:11:35;;;;;;;3.40;3.20;;;26.10;99.90;;;;;;5013692;28;20516;-69
2023/09/18 12:14:02;;;;;;;3.20;3.00;;;25.90;99.90;;;;;;5013256;28;20901;-69
2023/09/18 12:16:28;;;;;;;4.07;3.87;;;25.40;99.90;;;;;;5011553;28;20903;-69
2023/09/18 12:18:54;;;;;;;3.77;3.50;;;25.40;99.90;;;;;;5008542;28;20429;-69
2023/09/18 12:21:20;;;;;;;4.00;3.60;;;25.40;99.90;;;;;;5009866;28;20179;-69
2023/09/18 12:23:46;;;;;;;3.00;2.90;;;25.40;99.90;;;;;;4993817;28;20415;-68
2023/09/18 12:26:13;;;;;;;3.13;2.93;;;25.50;99.90;;;;;;4999100;28;20261;-64
2023/09/18 12:28:41;;;;;;;4.30;3.17;;;25.50;99.90;;;;;;5012734;28;20414;-68
2023/09/18 12:31:13;;;;;;;3.00;2.83;;;25.50;99.90;;;;;;5011907;28;20433;-68
2023/09/18 12:33:40;;;;;;;3.53;3.13;;;25.60;99.90;;;;;;5012065;28;22011;-69
2023/09/18 12:36:08;;;;;;;3.03;2.83;;;25.50;99.90;;;;;;5011787;28;20429;-68
2023/09/18 12:38:34;;;;;;;2.60;2.40;;;25.60;99.90;;;;;;5011737;28;20458;-69
2023/09/18 12:41:09;;;;;;;3.43;3.13;;;25.40;99.90;;;;;;5008688;28;20469;-70
2023/09/18 12:43:41;;;;;;;3.03;2.93;;;25.30;99.90;;;;;;5012739;28;20471;-68
2023/09/18 12:46:07;;;;;;;2.80;2.60;;;25.30;99.90;;;;;;5006302;28;20497;-68